createdAt,value
2019-04-30T00:01:55.760Z,24.90
2019-04-30T00:07:01.401Z,23.58
2019-04-30T00:12:09.955Z,22.24
2019-04-30T00:17:19.767Z,22.44
2019-04-30T00:22:33.992Z,26.03
2019-04-30T00:27:35.613Z,23.88
2019-04-30T00:32:43.793Z,26.11
2019-04-30T00:37:52.032Z,25.14
2019-04-30T00:43:00.207Z,25.56
2019-04-30T00:48:06.570Z,24.66
2019-04-30T00:53:16.658Z,30.07
2019-04-30T00:58:28.967Z,32.97
2019-04-30T01:03:31.174Z,31.88
2019-04-30T01:08:39.615Z,29.55
2019-04-30T01:13:52.535Z,31.19
2019-04-30T01:18:56.134Z,34.94
2019-04-30T01:24:04.755Z,33.91
2019-04-30T01:29:13.194Z,34.07
2019-04-30T01:34:21.698Z,34.20
2019-04-30T01:39:31.689Z,25.29
2019-04-30T01:44:39.187Z,34.69
2019-04-30T01:49:46.301Z,30.40
2019-04-30T01:54:54.762Z,32.71
2019-04-30T02:00:03.265Z,37.98
2019-04-30T02:05:11.711Z,39.26
2019-04-30T02:10:20.290Z,40.16
2019-04-30T02:15:29.173Z,37.50
2019-04-30T02:20:38.367Z,38.69
2019-04-30T02:25:44.760Z,39.57
2019-04-30T02:30:53.273Z,35.75
2019-04-30T02:36:03.686Z,38.87
2019-04-30T02:41:10.000Z,41.18
2019-04-30T02:46:19.260Z,38.31
2019-04-30T02:51:26.307Z,38.87
2019-04-30T02:56:34.863Z,37.98
2019-04-30T03:01:43.348Z,35.33
2019-04-30T03:06:51.850Z,33.89
2019-04-30T03:12:00.478Z,27.93
2019-04-30T03:17:10.237Z,34.40
2019-04-30T03:22:16.766Z,31.44
2019-04-30T03:27:25.259Z,32.88
2019-04-30T03:32:36.976Z,34.23
2019-04-30T03:37:41.754Z,30.00
2019-04-30T03:42:50.310Z,33.53
2019-04-30T03:48:00.310Z,34.69
2019-04-30T03:53:06.885Z,31.83
2019-04-30T03:58:15.390Z,34.67
2019-04-30T04:03:23.853Z,34.44
2019-04-30T04:08:32.341Z,33.36
2019-04-30T04:13:40.844Z,30.92
2019-04-30T04:18:50.163Z,30.54
2019-04-30T04:24:00.124Z,32.82
2019-04-30T04:29:05.418Z,34.02
2019-04-30T04:34:13.921Z,35.85
2019-04-30T04:39:22.470Z,34.24
2019-04-30T04:44:30.915Z,32.23
2019-04-30T04:49:39.856Z,32.68
2019-04-30T04:54:50.253Z,30.67
2019-04-30T04:59:55.396Z,34.12
2019-04-30T05:05:03.890Z,26.79
2019-04-30T05:10:12.427Z,30.31
2019-04-30T05:15:20.941Z,30.88
2019-04-30T05:20:29.684Z,31.70
2019-04-30T05:25:39.023Z,32.21
2019-04-30T05:30:46.153Z,31.35
2019-04-30T05:35:54.606Z,32.59
2019-04-30T05:41:03.085Z,32.37
2019-04-30T05:46:14.054Z,30.64
2019-04-30T05:51:21.331Z,36.76
2019-04-30T05:56:30.177Z,31.16
2019-04-30T06:01:35.705Z,34.31
2019-04-30T06:06:44.436Z,34.00
2019-04-30T06:11:52.970Z,30.51
2019-04-30T06:17:01.407Z,30.89
2019-04-30T06:22:10.994Z,31.42
2019-04-30T06:27:19.132Z,34.36
2019-04-30T06:32:26.489Z,32.40
2019-04-30T06:37:35.081Z,31.12
2019-04-30T06:42:43.559Z,35.44
2019-04-30T06:47:52.071Z,34.73
2019-04-30T06:53:01.637Z,33.66
2019-04-30T06:58:14.798Z,27.42
2019-04-30T07:03:16.822Z,29.06
2019-04-30T07:08:36.357Z,23.48
2019-04-30T07:13:33.349Z,26.27
2019-04-30T07:18:41.847Z,28.10
2019-04-30T07:23:50.325Z,30.29
2019-04-30T07:29:02.177Z,25.47
2019-04-30T07:34:09.150Z,28.32
2019-04-30T07:39:14.889Z,29.06
2019-04-30T07:44:33.314Z,28.77
2019-04-30T07:49:46.979Z,29.44
2019-04-30T07:54:39.706Z,28.97
2019-04-30T07:59:49.842Z,26.75
2019-04-30T08:04:56.201Z,30.11
2019-04-30T08:10:04.722Z,28.64
2019-04-30T08:15:13.290Z,29.35
2019-04-30T08:20:21.834Z,26.79
2019-04-30T08:25:30.358Z,26.58
2019-04-30T08:30:39.215Z,28.39
2019-04-30T08:35:47.390Z,27.16
2019-04-30T08:40:58.067Z,26.40
2019-04-30T08:46:03.838Z,23.51
2019-04-30T08:51:13.838Z,24.50
2019-04-30T08:56:21.961Z,27.49
2019-04-30T09:01:29.459Z,25.30
2019-04-30T09:06:38.679Z,25.96
2019-04-30T09:11:52.981Z,30.17
2019-04-30T09:16:52.588Z,25.69
2019-04-30T09:22:01.030Z,22.56
2019-04-30T09:27:10.776Z,30.20
2019-04-30T09:32:19.305Z,26.98
2019-04-30T09:37:25.571Z,24.31
2019-04-30T09:42:34.066Z,24.30
2019-04-30T09:47:42.563Z,26.37
2019-04-30T09:52:51.304Z,22.29
2019-04-30T09:57:59.556Z,24.76
2019-04-30T10:03:10.509Z,24.35
2019-04-30T10:08:16.147Z,20.81
2019-04-30T10:13:24.734Z,23.63
2019-04-30T10:18:33.368Z,24.41
2019-04-30T10:23:41.853Z,20.86
2019-04-30T10:28:50.376Z,24.83
2019-04-30T10:33:58.939Z,24.79
2019-04-30T10:39:07.491Z,21.40
2019-04-30T10:44:16.074Z,22.54
2019-04-30T10:49:24.701Z,18.75
2019-04-30T10:54:33.252Z,21.27
2019-04-30T10:59:41.796Z,20.22
2019-04-30T11:04:50.358Z,20.31
2019-04-30T11:09:58.974Z,23.22
2019-04-30T11:15:07.399Z,22.63
2019-04-30T11:20:16.108Z,15.91
2019-04-30T11:25:25.047Z,20.49
2019-04-30T11:30:32.715Z,17.96
2019-04-30T11:35:41.069Z,17.25
2019-04-30T11:40:50.455Z,17.68
2019-04-30T11:46:00.279Z,22.79
2019-04-30T11:51:09.323Z,24.65
2019-04-30T11:56:21.126Z,22.39
2019-04-30T12:01:20.096Z,22.29
2019-04-30T12:06:28.670Z,17.79
2019-04-30T12:19:00.709Z,11.00
